Time;durP1;ratioP1;P1;durP2;ratioP2;P2;SDS_P1;SDS_P2;PMS_P1;PMS_P2;Temp;Humidity;BMP_temperature;BMP_pressure;BME280_temperature;BME280_humidity;BME280_pressure;Samples;Min_cycle;Max_cycle;Signal;HPM_P1;HPM_P2
2021/07/16 00:02:36;;;;;;;16.50;12.93;;;;;;;20.36;78.12;98603.13;2300123;77;20918;-79
2021/07/16 00:05:37;;;;;;;17.60;12.63;;;;;;;20.10;79.22;98595.12;2299763;77;20957;-78
2021/07/16 00:08:38;;;;;;;20.97;13.08;;;;;;;20.60;83.90;98598.86;2299446;77;20913;-79
2021/07/16 00:11:39;;;;;;;20.05;12.75;;;;;;;21.24;79.23;98586.59;2294898;77;20917;-79
2021/07/16 00:14:40;;;;;;;21.62;12.58;;;;;;;21.09;79.08;98585.77;2291603;78;20972;-79
2021/07/16 00:17:41;;;;;;;26.87;12.58;;;;;;;21.28;78.34;98579.80;2292294;78;20900;-79
2021/07/16 00:20:44;;;;;;;16.45;12.98;;;;;;;21.03;78.82;98592.16;2292957;78;20904;-79
2021/07/16 00:23:44;;;;;;;20.25;13.43;;;;;;;21.49;81.01;98610.02;2292817;77;21357;-80
2021/07/16 00:26:46;;;;;;;17.73;13.28;;;;;;;22.02;78.98;98611.66;2292639;78;20900;-79
2021/07/16 00:29:47;;;;;;;18.95;12.53;;;;;;;21.65;76.00;98605.03;2292168;78;21002;-79
2021/07/16 00:32:48;;;;;;;14.35;12.37;;;;;;;21.17;76.43;98609.80;2292898;78;20908;-79
2021/07/16 00:35:49;;;;;;;19.50;14.75;;;;;;;21.52;80.27;98616.55;2292673;78;20936;-79
2021/07/16 00:38:50;;;;;;;21.95;14.38;;;;;;;22.02;77.68;98615.64;2292614;78;20912;-79
2021/07/16 00:41:51;;;;;;;16.12;12.33;;;;;;;21.52;75.83;98619.67;2292662;78;20908;-79
2021/07/16 00:44:52;;;;;;;20.55;14.73;;;;;;;21.25;77.50;98629.48;2292534;78;20904;-78
2021/07/16 00:47:53;;;;;;;22.07;14.03;;;;;;;21.24;77.03;98631.27;2292380;78;20905;-79
2021/07/16 00:50:54;;;;;;;24.45;16.45;;;;;;;20.71;77.18;98631.67;2292133;78;20959;-79
2021/07/16 00:53:55;;;;;;;20.15;15.58;;;;;;;20.31;78.21;98632.89;2292488;78;20903;-79
2021/07/16 00:56:56;;;;;;;23.18;16.00;;;;;;;19.95;79.33;98628.70;2292951;77;20955;-79
2021/07/16 00:59:57;;;;;;;18.98;14.75;;;;;;;19.49;80.97;98629.06;2299607;77;20945;-79
2021/07/16 01:02:58;;;;;;;19.85;14.43;;;;;;;19.49;80.97;98629.06;2294183;77;20937;-78
2021/07/16 01:06:00;;;;;;;22.07;14.87;;;;;;;20.09;84.59;98633.12;2291689;78;20945;-77
2021/07/16 01:09:01;;;;;;;20.17;15.18;;;;;;;20.51;80.78;98633.62;2291765;78;20996;-77
2021/07/16 01:12:02;;;;;;;19.90;14.93;;;;;;;20.17;79.68;98624.49;2291557;78;20901;-79
2021/07/16 01:15:03;;;;;;;16.70;14.05;;;;;;;19.82;80.17;98632.13;2285567;78;20965;-80
2021/07/16 01:18:04;;;;;;;15.63;13.88;;;;;;;19.89;83.30;98642.09;2283113;78;21165;-80
2021/07/16 01:21:05;;;;;;;18.77;14.95;;;;;;;20.71;83.09;98648.91;2283123;78;20961;-79
2021/07/16 01:24:07;;;;;;;20.32;14.35;;;;;;;21.25;81.11;98634.33;2283141;78;21325;-79
2021/07/16 01:27:07;;;;;;;17.23;13.25;;;;;;;20.90;78.21;98636.81;2280209;78;21315;-79
2021/07/16 01:30:08;;;;;;;17.10;12.98;;;;;;;20.57;80.30;98639.20;2252215;79;20924;-79
2021/07/16 01:33:09;;;;;;;14.70;13.05;;;;;;;21.21;81.63;98650.38;2274526;78;20934;-78
2021/07/16 01:36:11;;;;;;;20.57;14.13;;;;;;;21.84;79.98;98655.73;2281945;78;21345;-78
2021/07/16 01:39:12;;;;;;;17.00;13.28;;;;;;;22.14;77.46;98653.75;2281452;78;20945;-78
2021/07/16 01:42:12;;;;;;;24.37;13.40;;;;;;;21.47;75.45;98655.69;2281931;78;20930;-77
2021/07/16 01:45:13;;;;;;;16.67;12.75;;;;;;;21.16;77.29;98666.45;2282196;78;20914;-77
2021/07/16 01:48:14;;;;;;;18.62;12.63;;;;;;;21.56;79.43;98679.27;2282561;78;20914;-78
2021/07/16 01:51:15;;;;;;;19.17;14.78;;;;;;;22.14;78.13;98679.88;2282717;78;20938;-78
2021/07/16 01:54:16;;;;;;;15.98;13.32;;;;;;;22.52;76.64;98682.86;2282845;78;20930;-78
2021/07/16 01:57:17;;;;;;;17.23;12.70;;;;;;;22.58;75.61;98685.31;2282282;78;21206;-77
2021/07/16 02:00:18;;;;;;;17.50;13.65;;;;;;;22.39;74.20;98690.91;2282273;78;21290;-78
2021/07/16 02:03:19;;;;;;;16.50;12.82;;;;;;;21.81;73.91;98700.55;2282137;78;20902;-78
2021/07/16 02:06:20;;;;;;;14.28;12.30;;;;;;;21.67;75.87;98697.94;2282181;78;21259;-77
2021/07/16 02:09:21;;;;;;;17.67;12.25;;;;;;;21.78;76.16;98697.13;2282223;78;20941;-78
2021/07/16 02:12:22;;;;;;;15.08;12.98;;;;;;;21.97;75.85;98692.88;2282009;78;20914;-78
2021/07/16 02:15:23;;;;;;;19.02;13.30;;;;;;;21.87;74.35;98690.16;2257808;77;20917;-78
2021/07/16 02:18:24;;;;;;;13.72;12.40;;;;;;;21.39;74.83;98684.29;2249822;79;21078;-78
2021/07/16 02:21:25;;;;;;;14.07;12.60;;;;;;;21.44;76.81;98674.84;2249703;79;20947;-77
2021/07/16 02:24:26;;;;;;;17.07;12.47;;;;;;;21.81;77.11;98662.02;2249743;79;20984;-78
2021/07/16 02:27:27;;;;;;;19.23;12.37;;;;;;;22.07;76.41;98658.89;2251597;79;21042;-78
2021/07/16 02:30:28;;;;;;;16.07;11.80;;;;;;;22.17;75.87;98652.30;2263627;79;20924;-78
2021/07/16 02:33:28;;;;;;;14.65;12.03;;;;;;;22.27;75.91;98649.70;2263530;79;20939;-80
2021/07/16 02:36:30;;;;;;;12.95;11.63;;;;;;;22.49;75.44;98642.62;2263554;79;20935;-79
2021/07/16 02:39:32;;;;;;;15.05;11.80;;;;;;;22.66;74.01;98643.31;2232423;79;20880;-81
2021/07/16 02:42:33;;;;;;;14.80;13.28;;;;;;;22.66;74.01;98651.75;2252476;79;20908;-81
2021/07/16 02:45:34;;;;;;;15.90;12.25;;;;;;;22.38;71.95;98642.17;2250066;79;20931;-82
2021/07/16 02:48:35;;;;;;;16.90;13.00;;;;;;;21.85;73.28;98638.86;2250324;79;20940;-80
2021/07/16 02:51:37;;;;;;;17.35;13.38;;;;;;;21.84;74.07;98632.68;2249663;79;20904;-79
2021/07/16 02:54:38;;;;;;;18.20;15.32;;;;;;;21.98;74.05;98624.19;2249915;79;20964;-80
2021/07/16 02:57:39;;;;;;;17.02;12.82;;;;;;;21.82;73.34;98619.05;2249560;79;20978;-83
2021/07/16 03:00:40;;;;;;;23.00;15.15;;;;;;;21.65;74.61;98610.34;2249753;79;20908;-81
2021/07/16 03:03:41;;;;;;;23.07;17.17;;;;;;;21.98;74.19;98599.41;2249689;79;20908;-80
2021/07/16 03:06:42;;;;;;;25.32;16.42;;;;;;;21.45;72.72;98601.77;2249767;79;20912;-79
2021/07/16 03:09:43;;;;;;;33.73;17.40;;;;;;;20.69;74.10;98601.67;2249555;79;20912;-80
2021/07/16 03:12:44;;;;;;;31.40;17.23;;;;;;;20.11;75.14;98586.72;2249632;79;21312;-79
2021/07/16 03:15:45;;;;;;;23.38;14.03;;;;;;;19.77;76.51;98580.20;2249319;77;21003;-79
2021/07/16 03:18:45;;;;;;;29.90;16.93;;;;;;;19.94;78.62;98584.55;2249623;79;20909;-79
2021/07/16 03:21:47;;;;;;;22.00;15.43;;;;;;;20.42;78.70;98572.08;2249789;79;20904;-79
2021/07/16 03:24:48;;;;;;;18.12;14.47;;;;;;;20.87;78.60;98581.66;2249477;79;20955;-80
2021/07/16 03:27:48;;;;;;;25.48;16.10;;;;;;;21.36;77.92;98576.87;2249862;79;20979;-80
2021/07/16 03:30:49;;;;;;;22.20;16.35;;;;;;;21.79;76.53;98574.86;2249619;79;20943;-79
2021/07/16 03:33:50;;;;;;;23.42;15.70;;;;;;;22.09;75.34;98582.63;2249591;79;20920;-80
2021/07/16 03:36:51;;;;;;;23.57;16.05;;;;;;;22.35;74.25;98569.63;2249482;79;20940;-82
2021/07/16 03:39:52;;;;;;;32.38;17.15;;;;;;;22.36;72.36;98563.38;2250091;79;20956;-81
2021/07/16 03:42:53;;;;;;;25.45;16.77;;;;;;;21.81;72.09;98558.40;2249547;79;20947;-80
2021/07/16 03:45:54;;;;;;;31.15;16.70;;;;;;;21.19;73.23;98562.84;2249730;79;20968;-79
2021/07/16 03:48:59;;;;;;;34.50;15.53;;;;;;;21.01;75.30;98574.55;2249159;79;20924;-79
2021/07/16 03:52:00;;;;;;;23.77;17.10;;;;;;;21.41;76.17;98569.61;2249754;79;20972;-80
2021/07/16 03:55:05;;;;;;;28.15;16.30;;;;;;;21.92;75.36;98577.92;2249548;79;20954;-79
2021/07/16 03:58:05;;;;;;;22.85;15.25;;;;;;;22.28;74.15;98578.31;2249056;79;21312;-82
2021/07/16 04:01:08;;;;;;;27.82;15.48;;;;;;;22.48;73.45;98581.50;2250058;79;20912;-81
2021/07/16 04:04:09;;;;;;;29.90;13.70;;;;;;;22.61;72.94;98584.56;2249977;79;21435;-80
2021/07/16 04:07:17;;;;;;;31.57;13.65;;;;;;;22.61;72.39;98584.10;2249543;79;20928;-80
2021/07/16 04:10:15;;;;;;;34.98;19.02;;;;;;;22.26;72.12;98580.17;2249286;79;21106;-82
2021/07/16 04:13:17;;;;;;;36.73;18.02;;;;;;;22.17;72.39;98577.88;2250130;79;21016;-80
2021/07/16 04:16:17;;;;;;;132.25;26.15;;;;;;;22.22;73.03;98574.11;2286357;77;20924;-79
2021/07/16 04:19:18;;;;;;;226.45;31.02;;;;;;;22.46;73.47;98574.05;2291615;78;20920;-80
2021/07/16 04:22:21;;;;;;;47.85;16.97;;;;;;;22.71;73.00;98586.78;2291503;78;20971;-80
2021/07/16 04:25:22;;;;;;;27.07;14.83;;;;;;;22.90;72.45;98596.23;2291638;78;20984;-81
2021/07/16 04:28:23;;;;;;;35.17;17.37;;;;;;;22.89;71.67;98598.50;2292004;78;20979;-80
2021/07/16 04:31:24;;;;;;;41.85;22.00;;;;;;;22.24;71.23;98592.19;2291460;78;20928;-80
2021/07/16 04:34:24;;;;;;;40.00;16.80;;;;;;;21.56;72.46;98594.27;2291848;78;20936;-80
2021/07/16 04:37:25;;;;;;;51.68;18.95;;;;;;;21.40;73.84;98609.48;2292127;78;20952;-81
2021/07/16 04:40:26;;;;;;;38.55;18.00;;;;;;;21.56;75.50;98608.02;2291465;78;20955;-80
2021/07/16 04:43:27;;;;;;;34.25;18.77;;;;;;;22.10;75.33;98617.12;2291589;78;20932;-81
2021/07/16 04:46:29;;;;;;;32.93;18.75;;;;;;;22.47;74.62;98616.55;2291431;78;21734;-79
2021/07/16 04:49:31;;;;;;;33.38;20.02;;;;;;;22.62;73.54;98616.42;2290740;78;20976;-77
2021/07/16 04:52:31;;;;;;;27.22;19.73;;;;;;;22.59;73.13;98625.86;2291631;78;20928;-82
2021/07/16 04:55:32;;;;;;;28.15;18.77;;;;;;;22.51;73.46;98634.58;2292002;78;20928;-80
2021/07/16 04:58:33;;;;;;;25.02;17.75;;;;;;;22.57;72.88;98631.70;2291128;78;20971;-81
2021/07/16 05:01:34;;;;;;;26.10;18.25;;;;;;;22.50;72.82;98633.71;2291419;78;20932;-81
2021/07/16 05:04:35;;;;;;;26.30;19.02;;;;;;;22.57;73.67;98635.70;2291513;78;20916;-82
2021/07/16 05:07:37;;;;;;;28.75;18.82;;;;;;;22.88;73.48;98644.20;2291537;78;21015;-82
2021/07/16 05:10:38;;;;;;;30.57;19.77;;;;;;;22.99;73.31;98652.20;2291721;78;20912;-80
2021/07/16 05:13:39;;;;;;;25.97;19.23;;;;;;;23.10;73.53;98657.95;2291705;78;20972;-80
2021/07/16 05:16:40;;;;;;;22.87;17.50;;;;;;;23.20;73.01;98668.63;2290815;78;21059;-78
2021/07/16 05:19:41;;;;;;;30.85;19.35;;;;;;;23.25;72.38;98671.95;2292042;78;20976;-80
2021/07/16 05:22:43;;;;;;;19.25;16.75;;;;;;;23.30;72.22;98677.95;2291502;78;20928;-80
2021/07/16 05:25:44;;;;;;;24.00;17.60;;;;;;;23.30;71.54;98674.42;2291381;78;20959;-80
2021/07/16 05:28:47;;;;;;;24.60;17.98;;;;;;;23.28;71.78;98679.81;2291177;78;20936;-80
2021/07/16 05:31:47;;;;;;;22.10;17.25;;;;;;;23.09;70.85;98686.38;2290424;77;21004;-80
2021/07/16 05:34:48;;;;;;;23.98;17.35;;;;;;;22.96;71.57;98686.94;2290779;78;20936;-81
2021/07/16 05:37:49;;;;;;;24.43;17.07;;;;;;;23.14;72.51;98699.03;2290918;78;20908;-80
2021/07/16 05:40:50;;;;;;;22.27;17.10;;;;;;;23.10;71.12;98704.55;2291038;78;20951;-80
2021/07/16 05:43:51;;;;;;;28.65;18.37;;;;;;;23.30;71.39;98713.91;2290786;78;20912;-80
2021/07/16 05:46:52;;;;;;;23.62;17.48;;;;;;;23.11;70.33;98720.92;2290545;78;20957;-80
2021/07/16 05:49:53;;;;;;;23.18;18.25;;;;;;;23.16;71.89;98724.27;2290371;78;20943;-80
2021/07/16 05:52:54;;;;;;;24.63;17.98;;;;;;;23.30;71.84;98727.22;2290667;77;21035;-80
2021/07/16 05:55:55;;;;;;;23.90;17.25;;;;;;;23.63;71.97;98733.45;2290937;78;21388;-80
2021/07/16 05:58:56;;;;;;;18.65;16.50;;;;;;;24.11;71.05;98725.11;2290428;78;20998;-81
2021/07/16 06:01:59;;;;;;;24.25;17.25;;;;;;;24.56;69.94;98728.87;2290284;78;20897;-80
2021/07/16 06:05:03;;;;;;;22.52;15.50;;;;;;;25.00;69.26;98718.78;2290684;78;20928;-78
2021/07/16 06:08:04;;;;;;;17.52;15.70;;;;;;;25.47;68.26;98716.92;2291182;78;20919;-77
2021/07/16 06:11:05;;;;;;;22.37;16.07;;;;;;;25.83;67.50;98719.55;2291098;78;20983;-80
2021/07/16 06:14:06;;;;;;;23.32;15.40;;;;;;;26.22;66.14;98725.11;2291429;78;20893;-80
2021/07/16 06:17:07;;;;;;;21.52;15.25;;;;;;;25.95;65.46;98728.74;2281672;78;20981;-79
2021/07/16 06:20:08;;;;;;;16.90;14.20;;;;;;;25.60;64.43;98729.20;2280946;78;20989;-80
2021/07/16 06:23:09;;;;;;;18.12;14.00;;;;;;;25.49;65.91;98724.86;2281448;78;20926;-80
2021/07/16 06:26:10;;;;;;;14.93;13.00;;;;;;;25.73;66.32;98728.13;2281274;78;20961;-79
2021/07/16 06:29:11;;;;;;;19.07;14.25;;;;;;;25.90;65.36;98735.67;2280847;78;21400;-78
2021/07/16 06:32:12;;;;;;;21.27;13.28;;;;;;;26.14;63.97;98727.33;2280894;78;20933;-79
2021/07/16 06:35:13;;;;;;;20.65;13.68;;;;;;;25.69;62.62;98728.76;2281439;78;20934;-78
2021/07/16 06:38:14;;;;;;;22.87;13.68;;;;;;;25.27;64.63;98732.62;2281249;78;20905;-80
2021/07/16 06:41:15;;;;;;;22.20;13.45;;;;;;;25.26;64.62;98733.56;2281474;78;20905;-80
2021/07/16 06:44:16;;;;;;;21.68;13.65;;;;;;;25.35;64.63;98724.22;2281611;78;21239;-80
2021/07/16 06:47:17;;;;;;;15.63;13.05;;;;;;;25.40;65.43;98723.52;2281305;78;21293;-79
2021/07/16 06:50:19;;;;;;;20.68;14.23;;;;;;;25.14;65.05;98725.25;2281229;78;20926;-79
2021/07/16 06:53:20;;;;;;;22.67;13.45;;;;;;;24.71;66.66;98722.81;2281354;78;21294;-79
2021/07/16 06:56:21;;;;;;;18.32;13.83;;;;;;;24.24;67.62;98732.95;2281470;78;21017;-78
2021/07/16 06:59:22;;;;;;;17.98;14.30;;;;;;;23.76;68.62;98738.66;2281344;77;21448;-80
2021/07/16 07:02:23;;;;;;;26.02;14.85;;;;;;;23.47;69.65;98742.53;2281694;78;20962;-78
2021/07/16 07:05:25;;;;;;;21.07;13.83;;;;;;;23.66;70.36;98749.31;2281419;78;20922;-78
2021/07/16 07:08:26;;;;;;;21.13;13.93;;;;;;;24.23;69.57;98756.56;2281306;78;21329;-78
2021/07/16 07:11:27;;;;;;;15.23;12.98;;;;;;;24.65;68.91;98759.14;2280951;78;20941;-78
2021/07/16 07:14:31;;;;;;;20.92;12.88;;;;;;;24.99;66.98;98754.91;2279777;78;20899;-78
2021/07/16 07:17:32;;;;;;;32.40;14.58;;;;;;;25.01;66.97;98756.56;2249071;79;20984;-79
2021/07/16 07:20:33;;;;;;;22.60;13.88;;;;;;;24.95;67.23;98756.83;2249151;79;20916;-76
2021/07/16 07:23:34;;;;;;;17.62;14.33;;;;;;;24.97;66.90;98752.74;2248578;79;21000;-76
2021/07/16 07:26:35;;;;;;;18.00;12.30;;;;;;;25.38;66.29;98744.11;2248845;79;21011;-76
2021/07/16 07:29:36;;;;;;;29.27;12.88;;;;;;;26.04;64.42;98752.36;2248852;79;20967;-76
2021/07/16 07:32:37;;;;;;;14.23;11.85;;;;;;;26.09;64.04;98741.42;2249181;79;21313;-79
2021/07/16 07:35:38;;;;;;;18.95;11.55;;;;;;;26.32;63.15;98727.69;2249298;79;21355;-80
2021/07/16 07:38:39;;;;;;;15.40;11.12;;;;;;;25.56;62.65;98719.61;2249951;79;21315;-80
2021/07/16 07:41:45;;;;;;;30.85;12.90;;;;;;;25.46;63.61;98729.03;2249800;79;21277;-80
2021/07/16 07:44:42;;;;;;;18.48;12.45;;;;;;;25.19;63.96;98730.80;2248859;79;21001;-78
2021/07/16 07:47:43;;;;;;;13.70;11.68;;;;;;;25.53;63.99;98725.97;2249735;79;21328;-78
2021/07/16 07:50:44;;;;;;;19.07;11.43;;;;;;;25.61;64.09;98725.58;2249483;79;20965;-78
2021/07/16 07:53:47;;;;;;;15.97;11.93;;;;;;;25.71;62.52;98726.87;2227731;79;20896;-79
2021/07/16 07:56:48;;;;;;;16.35;11.83;;;;;;;25.87;61.44;98728.28;2249301;79;21364;-80
2021/07/16 07:59:49;;;;;;;18.92;12.82;;;;;;;26.28;61.66;98736.83;2248843;79;20956;-79
2021/07/16 08:02:50;;;;;;;16.70;11.93;;;;;;;26.38;62.00;98735.41;2248422;79;21336;-79
2021/07/16 08:05:50;;;;;;;17.30;12.80;;;;;;;26.25;61.95;98738.33;2248917;79;20900;-79
2021/07/16 08:08:52;;;;;;;17.87;13.15;;;;;;;26.43;62.09;98743.19;2249127;79;21186;-79
2021/07/16 08:11:53;;;;;;;20.92;12.28;;;;;;;26.86;61.63;98744.37;2249291;79;20967;-77
2021/07/16 08:14:54;;;;;;;14.70;12.30;;;;;;;27.08;60.72;98749.45;2249580;76;20928;-79
2021/07/16 08:17:55;;;;;;;15.98;12.40;;;;;;;27.65;59.47;98748.40;2249309;79;21320;-78
2021/07/16 08:20:56;;;;;;;14.10;10.70;;;;;;;28.04;58.87;98751.87;2249187;79;20947;-78
2021/07/16 08:23:57;;;;;;;12.85;10.20;;;;;;;28.39;58.00;98751.95;2249210;79;20877;-79
2021/07/16 08:26:58;;;;;;;19.32;10.85;;;;;;;28.93;53.67;98752.17;2249333;79;20908;-78
2021/07/16 08:29:59;;;;;;;15.70;10.15;;;;;;;28.46;55.41;98756.46;2249091;79;20980;-79
2021/07/16 08:33:03;;;;;;;14.40;11.60;;;;;;;28.62;54.68;98753.70;2249417;79;20931;-79
2021/07/16 08:36:04;;;;;;;13.93;12.28;;;;;;;28.36;54.75;98744.09;2249030;79;20969;-78
2021/07/16 08:39:05;;;;;;;17.02;11.78;;;;;;;27.86;55.17;98745.81;2249273;79;21268;-80
2021/07/16 08:42:07;;;;;;;13.83;11.75;;;;;;;27.42;55.60;98751.05;2248906;79;20952;-78
2021/07/16 08:45:08;;;;;;;16.65;12.00;;;;;;;26.87;57.29;98755.00;2249164;79;20923;-79
2021/07/16 08:48:09;;;;;;;20.17;12.30;;;;;;;26.58;58.27;98757.08;2249131;79;20932;-78
2021/07/16 08:51:14;;;;;;;14.13;11.83;;;;;;;26.74;58.97;98751.75;2248882;79;21003;-79
2021/07/16 08:54:19;;;;;;;18.55;11.88;;;;;;;26.88;59.17;98749.20;2249046;79;20924;-79
2021/07/16 08:57:22;;;;;;;15.85;11.40;;;;;;;27.13;59.28;98751.39;2248986;79;21002;-79
2021/07/16 09:00:22;;;;;;;20.45;12.50;;;;;;;28.00;57.57;98755.70;2249142;79;21415;-80
2021/07/16 09:03:23;;;;;;;19.30;12.10;;;;;;;28.65;56.04;98758.89;2248931;79;20913;-78
2021/07/16 09:06:24;;;;;;;15.93;10.85;;;;;;;29.23;54.46;98755.17;2248806;79;20908;-78
2021/07/16 09:09:25;;;;;;;12.78;11.25;;;;;;;29.45;53.51;98764.44;2249173;79;21367;-77
2021/07/16 09:12:26;;;;;;;13.20;10.38;;;;;;;29.66;53.33;98764.86;2248753;79;20932;-78
2021/07/16 09:15:28;;;;;;;13.43;10.95;;;;;;;29.75;53.11;98759.34;2256237;77;21298;-79
2021/07/16 09:18:28;;;;;;;13.08;10.00;;;;;;;29.98;53.05;98760.46;2290214;78;20924;-78
2021/07/16 09:21:29;;;;;;;17.00;11.88;;;;;;;30.28;51.93;98765.09;2290025;78;20903;-79
2021/07/16 09:24:30;;;;;;;13.45;11.18;;;;;;;30.33;51.83;98755.34;2290498;78;20964;-81
2021/07/16 09:27:32;;;;;;;21.42;10.98;;;;;;;30.64;51.65;98759.48;2290434;78;20909;-77
2021/07/16 09:30:32;;;;;;;13.03;10.82;;;;;;;30.96;49.58;98760.72;2290680;78;20960;-82
2021/07/16 09:33:33;;;;;;;19.92;11.57;;;;;;;30.50;48.60;98764.97;2290855;78;20917;-79
2021/07/16 09:36:34;;;;;;;13.15;10.68;;;;;;;29.88;50.12;98767.44;2290296;78;20920;-79
2021/07/16 09:39:35;;;;;;;18.05;11.53;;;;;;;29.25;50.00;98766.68;2290451;78;21356;-80
2021/07/16 09:42:36;;;;;;;18.70;12.35;;;;;;;28.77;51.12;98772.88;2290870;78;21363;-79
2021/07/16 09:45:37;;;;;;;14.90;11.60;;;;;;;28.42;52.30;98766.53;2291066;78;20885;-80
2021/07/16 09:48:41;;;;;;;13.70;11.70;;;;;;;28.51;53.39;98771.33;2291206;78;20897;-80
2021/07/16 09:51:42;;;;;;;14.80;12.03;;;;;;;28.50;53.64;98768.73;2290902;78;21000;-79
2021/07/16 09:54:43;;;;;;;15.83;12.10;;;;;;;28.64;53.03;98771.45;2291393;78;20909;-79
2021/07/16 09:57:44;;;;;;;14.23;11.33;;;;;;;28.27;53.23;98768.81;2291173;78;20907;-78
2021/07/16 10:00:45;;;;;;;15.60;11.83;;;;;;;28.18;54.30;98766.66;2290987;78;20975;-80
2021/07/16 10:03:46;;;;;;;13.53;11.53;;;;;;;28.29;54.31;98772.27;2291176;78;20903;-80
2021/07/16 10:06:48;;;;;;;19.37;12.90;;;;;;;28.25;53.82;98777.44;2291108;78;20967;-79
2021/07/16 10:09:49;;;;;;;20.50;12.00;;;;;;;27.98;54.50;98772.38;2291041;78;20948;-77
2021/07/16 10:12:50;;;;;;;23.67;12.28;;;;;;;28.00;55.07;98774.02;2291229;78;20920;-79
2021/07/16 10:15:51;;;;;;;17.45;11.43;;;;;;;28.57;54.64;98772.77;2288807;77;20923;-78
2021/07/16 10:18:52;;;;;;;20.40;12.20;;;;;;;29.09;53.39;98777.56;2281169;78;20941;-79
2021/07/16 10:21:53;;;;;;;14.68;12.18;;;;;;;29.29;52.80;98776.27;2281460;78;21310;-78
2021/07/16 10:24:54;;;;;;;15.32;10.43;;;;;;;29.70;51.71;98766.37;2281194;78;20918;-79
2021/07/16 10:27:55;;;;;;;381.80;39.88;;;;;;;29.81;50.13;98767.00;2281398;78;21369;-79
2021/07/16 10:30:56;;;;;;;22.00;12.07;;;;;;;29.97;50.76;98767.67;2281181;78;20965;-79
2021/07/16 10:33:57;;;;;;;16.02;10.65;;;;;;;30.34;50.93;98755.73;2281771;78;20918;-81
2021/07/16 10:36:58;;;;;;;24.23;12.05;;;;;;;30.60;49.91;98759.33;2281452;78;20907;-79
2021/07/16 10:39:59;;;;;;;11.55;9.10;;;;;;;30.77;49.25;98759.47;2281394;78;20982;-79
2021/07/16 10:43:01;;;;;;;13.03;9.80;;;;;;;30.96;46.22;98763.41;2281373;77;20954;-80
2021/07/16 10:46:02;;;;;;;12.43;8.73;;;;;;;30.39;46.42;98762.55;2281105;77;21381;-80
2021/07/16 10:49:03;;;;;;;17.57;9.98;;;;;;;30.36;46.66;98758.72;2281377;78;21295;-78
2021/07/16 10:52:06;;;;;;;13.70;10.05;;;;;;;30.49;46.01;98756.51;2281175;77;21267;-80
2021/07/16 10:55:07;;;;;;;14.38;9.43;;;;;;;30.68;46.44;98759.64;2281289;78;20907;-79
2021/07/16 10:58:08;;;;;;;12.43;10.00;;;;;;;30.39;46.21;98753.61;2281126;77;20954;-78
2021/07/16 11:01:08;;;;;;;10.72;9.58;;;;;;;30.13;45.89;98759.44;2280185;78;21158;-80
2021/07/16 11:04:10;;;;;;;11.57;9.60;;;;;;;30.18;47.15;98754.59;2280730;77;20982;-80
2021/07/16 11:07:10;;;;;;;10.35;9.20;;;;;;;30.35;47.02;98746.71;2280772;78;20926;-80
2021/07/16 11:10:12;;;;;;;14.95;9.58;;;;;;;30.42;46.57;98746.17;2280769;77;20938;-80
2021/07/16 11:13:12;;;;;;;9.85;8.20;;;;;;;30.48;46.61;98742.66;2281253;78;21161;-79
2021/07/16 11:16:14;;;;;;;13.22;8.98;;;;;;;30.28;45.03;98742.21;2284123;77;20952;-77
2021/07/16 11:19:15;;;;;;;70.55;13.22;;;;;;;30.34;45.11;98741.78;2290907;78;20873;-79
2021/07/16 11:22:16;;;;;;;12.98;8.98;;;;;;;30.45;44.10;98739.70;2290758;78;20912;-80
2021/07/16 11:25:19;;;;;;;10.85;8.70;;;;;;;30.61;45.44;98739.51;2290763;78;21675;-80
2021/07/16 11:28:20;;;;;;;13.30;8.75;;;;;;;30.93;44.62;98734.48;2290978;78;20924;-79
2021/07/16 11:31:22;;;;;;;9.67;8.40;;;;;;;30.97;43.73;98732.80;2289797;78;20979;-80
2021/07/16 11:34:23;;;;;;;10.80;9.10;;;;;;;30.95;44.43;98734.74;2290775;78;21583;-80
2021/07/16 11:37:24;;;;;;;8.95;7.97;;;;;;;31.15;44.13;98733.80;2290764;78;21281;-80
2021/07/16 11:40:25;;;;;;;9.00;7.53;;;;;;;31.29;43.38;98735.01;2290556;78;20960;-80
2021/07/16 11:43:26;;;;;;;11.88;8.48;;;;;;;31.49;42.55;98728.12;2291249;78;20905;-79
2021/07/16 11:46:27;;;;;;;11.68;9.45;;;;;;;31.72;43.34;98730.45;2291182;78;20968;-80
2021/07/16 11:49:28;;;;;;;10.28;8.55;;;;;;;31.99;42.43;98733.23;2290669;78;20947;-79
2021/07/16 11:52:29;;;;;;;11.57;8.53;;;;;;;32.20;42.34;98732.08;2290317;78;21142;-80
2021/07/16 11:55:30;;;;;;;11.93;9.30;;;;;;;32.28;42.04;98732.37;2290901;78;21336;-80
2021/07/16 11:58:31;;;;;;;12.13;9.53;;;;;;;32.49;42.21;98733.86;2291261;78;20881;-79
2021/07/16 12:01:32;;;;;;;11.68;8.43;;;;;;;32.63;41.98;98739.51;2290000;78;21023;-78
2021/07/16 12:04:33;;;;;;;10.20;8.98;;;;;;;32.61;41.57;98730.17;2290384;78;20944;-79
2021/07/16 12:07:34;;;;;;;17.60;8.43;;;;;;;32.75;41.17;98720.95;2290761;78;20932;-78
2021/07/16 12:10:35;;;;;;;12.43;8.45;;;;;;;32.87;41.10;98715.94;2291053;78;20948;-79
2021/07/16 12:13:36;;;;;;;10.13;8.65;;;;;;;32.86;39.89;98710.66;2290951;78;20975;-78
2021/07/16 12:16:39;;;;;;;13.50;8.55;;;;;;;32.24;39.61;98719.23;2276825;78;21368;-79
2021/07/16 12:19:40;;;;;;;13.20;8.08;;;;;;;31.88;40.46;98714.80;2249130;79;20980;-78
2021/07/16 12:22:44;;;;;;;13.68;9.08;;;;;;;31.26;40.74;98711.83;2248597;79;21031;-77
2021/07/16 12:25:44;;;;;;;9.08;8.18;;;;;;;30.98;41.80;98707.56;2248295;79;20956;-78
2021/07/16 12:28:45;;;;;;;11.70;8.35;;;;;;;30.96;41.95;98707.30;2249059;79;20980;-79
2021/07/16 12:31:46;;;;;;;12.28;8.50;;;;;;;31.25;41.91;98705.20;2248700;79;21300;-77
2021/07/16 12:34:47;;;;;;;10.35;8.20;;;;;;;31.44;42.13;98706.89;2249063;79;21309;-79
2021/07/16 12:37:48;;;;;;;12.98;8.68;;;;;;;31.39;41.62;98703.68;2249318;79;21336;-78
2021/07/16 12:40:49;;;;;;;14.03;8.28;;;;;;;31.40;41.92;98702.70;2249235;79;20916;-79
2021/07/16 12:43:50;;;;;;;10.95;7.97;;;;;;;31.67;40.57;98709.19;2248515;79;21332;-78
2021/07/16 12:46:51;;;;;;;10.85;7.80;;;;;;;31.73;41.37;98705.19;2248950;79;20924;-78
2021/07/16 12:49:52;;;;;;;14.60;8.80;;;;;;;31.67;40.45;98707.34;2249415;79;20967;-79
2021/07/16 12:52:54;;;;;;;14.73;9.30;;;;;;;31.44;40.70;98704.19;2249415;79;21138;-80
2021/07/16 12:55:55;;;;;;;25.05;9.88;;;;;;;31.11;41.92;98706.66;2249445;79;20916;-78
2021/07/16 12:58:56;;;;;;;14.40;9.50;;;;;;;31.12;42.46;98707.03;2248762;79;20964;-78
2021/07/16 13:01:57;;;;;;;12.40;8.60;;;;;;;31.35;42.44;98704.40;2249496;79;20976;-78
2021/07/16 13:04:58;;;;;;;12.82;8.53;;;;;;;31.05;41.84;98698.54;2248538;79;21327;-78
2021/07/16 13:07:59;;;;;;;10.93;8.98;;;;;;;30.93;42.63;98698.95;2249128;79;20912;-78
2021/07/16 13:11:02;;;;;;;10.20;8.75;;;;;;;31.16;42.81;98701.81;2249213;79;20928;-79
2021/07/16 13:14:04;;;;;;;12.07;9.45;;;;;;;31.11;42.83;98694.52;2249071;79;20964;-79
2021/07/16 13:17:05;;;;;;;11.25;8.78;;;;;;;31.20;42.68;98695.22;2260380;77;20950;-78
2021/07/16 13:20:05;;;;;;;11.40;9.33;;;;;;;31.38;42.41;98689.82;2280693;78;20981;-78
2021/07/16 13:23:07;;;;;;;14.60;9.50;;;;;;;31.25;43.64;98691.72;2280635;77;20950;-79
2021/07/16 13:26:08;;;;;;;12.47;8.10;;;;;;;31.24;42.38;98694.05;2280669;78;21372;-78
2021/07/16 13:29:11;;;;;;;15.70;8.55;;;;;;;31.20;41.12;98683.95;2280554;78;21378;-78
2021/07/16 13:32:11;;;;;;;11.40;8.60;;;;;;;31.35;40.82;98687.36;2280997;77;20997;-78
2021/07/16 13:35:13;;;;;;;10.60;8.45;;;;;;;31.22;41.01;98678.47;2281521;78;21087;-78
2021/07/16 13:38:16;;;;;;;11.03;8.83;;;;;;;31.20;41.89;98676.34;2281673;78;20923;-78
2021/07/16 13:41:17;;;;;;;11.90;8.18;;;;;;;30.94;42.75;98677.77;2281396;77;20912;-79
2021/07/16 13:44:18;;;;;;;21.80;10.40;;;;;;;30.65;43.70;98680.39;2280902;77;20914;-77
2021/07/16 13:47:19;;;;;;;11.50;8.85;;;;;;;30.59;44.18;98675.45;2280937;78;20879;-77
2021/07/16 13:50:19;;;;;;;12.55;8.50;;;;;;;30.77;43.92;98680.84;2281587;78;20926;-78
2021/07/16 13:53:22;;;;;;;10.57;8.20;;;;;;;30.70;44.05;98680.44;2281794;77;21386;-79
2021/07/16 13:56:23;;;;;;;12.15;8.93;;;;;;;30.59;44.69;98680.36;2281455;77;21023;-78